Flag for Israel

Past Weather in 32°09'20"N, 34°50'31"E, Israel — Yesterday and Last 2 Weeks

Currently: 55 °F. Passing clouds. (Weather station: Ben Gurion International Airport, Israel). See more current weather

Past Weather in 32°09'20"N, 34°50'31"E — Graph

°F

32°09'20"N, 34°50'31"E Temperature Yesterday

Maximum temperature yesterday: 68 °F (at 11:50 am)
Minimum temperature yesterday: 57 °F (at 6:20 am)
Average temperature yesterday: 63 °F

High & Low Weather Summary for the Past Weeks

 TemperatureHumidityPressure
High79 °F (Mar 1, 3:20 pm)100% (Feb 21, 5:50 am)30.18 "Hg (Feb 21, 5:50 am)
Low46 °F (Feb 21, 5:50 am)12% (Feb 29, 11:20 am)29.83 "Hg (Feb 27, 2:50 am)
Average61 °F65%30.05 "Hg
* Reported Feb 18 3:20 am — Mar 4 3:20 am, 32°09'20"N, 34°50'31"E. Weather by CustomWeather, © 2024

Note: Actual official high and low records may vary slightly from our data, if they occured in-between our weather recording intervals... More about our weather records

32°09'20"N, 34°50'31"E Weather History for the Previous 24 Hours

Scroll right to see more
 ConditionsComfort  
Time TempWeatherWind HumidityBarometerVisibility
3:20 am
Mon, Mar 4
57 °FPassing clouds.3 mph88%29.98 "HgN/A
2:50 am57 °FPassing clouds.5 mph82%29.98 "HgN/A
2:20 am57 °FPassing clouds.5 mph88%29.98 "HgN/A
1:50 am57 °FPassing clouds.2 mph88%29.98 "HgN/A
1:20 am57 °FPassing clouds.5 mph88%29.98 "HgN/A
12:50 am57 °FLight rain. Passing clouds.7 mph88%29.98 "HgN/A
12:20 am57 °FPassing clouds.6 mph88%30.01 "HgN/A
11:50 pm
Sun, Mar 3
59 °FPassing clouds.5 mph82%30.01 "HgN/A
11:20 pm59 °FLight rain. Passing clouds.7 mph82%30.01 "HgN/A
10:50 pm59 °FPassing clouds.6 mph82%30.01 "HgN/A
9:50 pm61 °FPassing clouds.6 mph77%30.01 "HgN/A
9:20 pm61 °FPassing clouds.6 mph77%30.01 "HgN/A
8:50 pm61 °FPassing clouds.5 mph77%30.01 "HgN/A
8:20 pm61 °FPassing clouds.6 mph77%30.01 "HgN/A
7:50 pm61 °FPassing clouds.7 mph77%30.01 "HgN/A
7:20 pm63 °FPassing clouds.7 mph73%30.01 "HgN/A
6:50 pm63 °FPassing clouds.7 mph73%30.01 "HgN/A
6:20 pm63 °FPassing clouds.9 mph73%30.01 "HgN/A
5:50 pm63 °FPassing clouds.8 mph73%29.98 "HgN/A
5:20 pm64 °FScattered clouds.10 mph68%29.98 "HgN/A
4:50 pm64 °FScattered clouds.12 mph68%29.98 "HgN/A
4:20 pm64 °FScattered clouds.13 mph68%29.98 "HgN/A
3:50 pm66 °FScattered clouds.13 mph64%29.98 "HgN/A
3:20 pm66 °FScattered clouds.15 mph60%29.98 "HgN/A
2:50 pm66 °FScattered clouds.13 mph60%29.98 "HgN/A
2:20 pm66 °FScattered clouds.16 mph64%29.98 "HgN/A
1:50 pm66 °FScattered clouds.16 mph64%29.95 "HgN/A
1:20 pm66 °FScattered clouds.17 mph64%29.98 "HgN/A
12:50 pm66 °FScattered clouds.16 mph64%29.95 "HgN/A
12:20 pm68 °FScattered clouds.16 mph60%29.98 "HgN/A
11:50 am68 °FScattered clouds.16 mph56%29.98 "HgN/A
11:20 am66 °FScattered clouds.16 mph60%29.98 "HgN/A
10:50 am66 °FScattered clouds.15 mph64%29.98 "HgN/A
10:20 am66 °FPartly sunny.9 mph68%29.98 "HgN/A
9:50 am64 °FPartly sunny.12 mph73%29.98 "HgN/A
9:20 am63 °FPartly sunny.9 mph83%29.98 "HgN/A
8:50 am63 °FLight rain. Partly sunny.7 mph83%29.98 "Hg5 mi
8:20 am59 °FPartly sunny.8 mph88%29.98 "HgN/A
7:50 am57 °FBroken clouds.7 mph94%30.01 "HgN/A
7:20 am57 °FPartly sunny.8 mph88%29.98 "HgN/A
6:50 am57 °FPartly sunny.12 mph88%29.98 "HgN/A
6:20 am57 °FPartly sunny.12 mph88%29.98 "HgN/A
5:50 am61 °FPassing clouds.8 mph77%29.98 "HgN/A
5:20 am61 °FPassing clouds.7 mph83%29.95 "HgN/A
4:20 am61 °FPassing clouds.7 mph83%29.95 "HgN/A
Weather by CustomWeather, © 2024

See weather overview